Time;durP1;ratioP1;P1;durP2;ratioP2;P2;SDS_P1;SDS_P2;PMS_P1;PMS_P2;Temp;Humidity;BMP_temperature;BMP_pressure;BME280_temperature;BME280_humidity;BME280_pressure;Samples;Min_cycle;Max_cycle;Signal;HPM_P1;HPM_P2
2024/03/12 00:01:26;;;;;;;10.07;8.90;;;;;;;;;;5049797;28;20061;-58
2024/03/12 00:03:54;;;;;;;9.30;8.27;;;;;;;;;;5056429;28;20056;-58
2024/03/12 00:06:21;;;;;;;10.68;8.80;;;;;;;;;;5056448;28;20064;-58
2024/03/12 00:08:48;;;;;;;9.55;8.38;;;;;;;;;;5055855;28;20056;-58
2024/03/12 00:11:15;;;;;;;11.77;10.13;;;;;;;;;;5055683;28;20395;-58
2024/03/12 00:13:42;;;;;;;9.75;8.75;;;;;;;;;;5056249;28;20064;-58
2024/03/12 00:16:10;;;;;;;9.82;8.75;;;;;;;;;;5056322;28;20053;-58
2024/03/12 00:18:40;;;;;;;9.18;8.20;;;;;;;;;;5055964;28;20042;-57
2024/03/12 00:21:07;;;;;;;10.77;8.23;;;;;;;;;;5056517;28;20053;-58
2024/03/12 00:23:34;;;;;;;10.85;9.35;;;;;;;;;;5056059;28;20053;-57
2024/03/12 00:26:02;;;;;;;9.63;8.63;;;;;;;;;;5055467;28;20140;-58
2024/03/12 00:28:30;;;;;;;9.20;8.30;;;;;;;;;;5055866;28;20045;-58
2024/03/12 00:30:59;;;;;;;9.93;8.93;;;;;;;;;;5055765;28;20490;-57
2024/03/12 00:33:27;;;;;;;11.07;9.07;;;;;;;;;;5056035;28;20490;-58
2024/03/12 00:35:55;;;;;;;10.98;9.80;;;;;;;;;;5055886;28;20049;-58
2024/03/12 00:38:21;;;;;;;13.90;10.07;;;;;;;;;;5055785;28;20045;-58
2024/03/12 00:40:50;;;;;;;12.55;10.45;;;;;;;;;;5055698;28;20493;-57
2024/03/12 00:43:17;;;;;;;12.32;10.57;;;;;;;;;;5055531;28;20057;-58
2024/03/12 00:45:44;;;;;;;12.60;10.15;;;;;;;;;;5055553;28;20406;-59
2024/03/12 00:48:13;;;;;;;14.23;11.90;;;;;;;;;;5055614;28;20053;-58
2024/03/12 00:50:42;;;;;;;15.52;12.68;;;;;;;;;;5055686;28;20406;-58
2024/03/12 00:53:11;;;;;;;15.00;13.00;;;;;;;;;;5055746;28;20053;-58
2024/03/12 00:55:40;;;;;;;17.52;13.93;;;;;;;;;;5055725;28;20057;-58
2024/03/12 00:58:10;;;;;;;17.15;14.13;;;;;;;;;;5055433;28;20049;-58
2024/03/12 01:00:37;;;;;;;16.17;13.95;;;;;;;;;;5055229;28;20402;-57
2024/03/12 01:03:05;;;;;;;17.50;14.50;;;;;;;;;;5055318;28;20060;-58
2024/03/12 01:05:35;;;;;;;16.38;13.65;;;;;;;;;;5055206;28;20060;-58
2024/03/12 01:08:05;;;;;;;15.63;13.43;;;;;;;;;;5055276;28;20045;-57
2024/03/12 01:10:31;;;;;;;;;;;;;;;;;;5055079;28;20053;-57
2024/03/12 01:12:58;;;;;;;18.83;15.95;;;;;;;;;;5055253;28;20015;-57
2024/03/12 01:15:25;;;;;;;17.88;16.00;;;;;;;;;;5055007;28;20398;-58
2024/03/12 01:17:53;;;;;;;19.77;16.55;;;;;;;;;;5055144;28;20063;-57
2024/03/12 01:20:20;;;;;;;18.42;15.32;;;;;;;;;;5054960;28;20053;-57
2024/03/12 01:22:46;;;;;;;17.50;15.60;;;;;;;;;;5054576;28;20052;-58
2024/03/12 01:25:15;;;;;;;19.20;15.90;;;;;;;;;;5054755;28;20472;-58
2024/03/12 01:27:42;;;;;;;17.80;15.80;;;;;;;;;;5054950;28;20060;-58
2024/03/12 01:30:14;;;;;;;17.63;15.65;;;;;;;;;;5054613;28;20064;-57
2024/03/12 01:32:41;;;;;;;20.33;17.10;;;;;;;;;;5055081;28;20513;-57
2024/03/12 01:35:08;;;;;;;18.98;15.65;;;;;;;;;;5054789;28;20111;-57
2024/03/12 01:37:34;;;;;;;19.02;16.30;;;;;;;;;;5054664;28;20482;-57
2024/03/12 01:40:09;;;;;;;18.33;16.33;;;;;;;;;;5054565;28;20053;-57
2024/03/12 01:42:40;;;;;;;20.50;16.30;;;;;;;;;;5054373;28;20061;-57
2024/03/12 01:45:08;;;;;;;20.08;16.55;;;;;;;;;;5054176;28;20156;-57
2024/03/12 01:47:35;;;;;;;20.33;16.08;;;;;;;;;;5054176;28;20053;-57
2024/03/12 01:50:02;;;;;;;17.88;15.02;;;;;;;;;;5054158;28;20052;-57
2024/03/12 01:52:29;;;;;;;19.77;15.73;;;;;;;;;;5054591;28;20076;-57
2024/03/12 01:54:55;;;;;;;21.27;16.55;;;;;;;;;;5054099;28;20056;-57
2024/03/12 01:57:22;;;;;;;19.13;16.08;;;;;;;;;;5053980;28;20053;-57
2024/03/12 01:59:51;;;;;;;21.52;16.88;;;;;;;;;;5051804;28;20049;-58
2024/03/12 02:02:18;;;;;;;20.37;16.40;;;;;;;;;;5034221;28;20049;-60
2024/03/12 02:04:45;;;;;;;22.98;17.10;;;;;;;;;;5034113;28;20480;-57
2024/03/12 02:07:12;;;;;;;20.38;16.92;;;;;;;;;;5034309;28;20060;-57
2024/03/12 02:09:43;;;;;;;21.52;17.42;;;;;;;;;;5033861;28;20053;-57
2024/03/12 02:12:09;;;;;;;21.13;17.00;;;;;;;;;;5033839;28;20068;-57
2024/03/12 02:14:36;;;;;;;23.70;18.08;;;;;;;;;;5033968;28;20064;-57
2024/03/12 02:17:05;;;;;;;21.98;17.48;;;;;;;;;;5033111;28;20058;-58
2024/03/12 02:19:33;;;;;;;21.87;17.33;;;;;;;;;;5033891;28;20053;-57
2024/03/12 02:22:00;;;;;;;24.33;19.00;;;;;;;;;;5034382;28;20056;-57
2024/03/12 02:24:29;;;;;;;22.98;17.77;;;;;;;;;;5033928;28;20064;-57
2024/03/12 02:26:56;;;;;;;24.13;18.58;;;;;;;;;;5034091;28;20049;-58
2024/03/12 02:29:22;;;;;;;22.08;17.92;;;;;;;;;;5033882;28;20064;-58
2024/03/12 02:31:49;;;;;;;24.30;18.23;;;;;;;;;;5033913;28;20064;-57
2024/03/12 02:34:16;;;;;;;24.83;18.33;;;;;;;;;;5033542;28;20053;-57
2024/03/12 02:36:43;;;;;;;26.10;20.63;;;;;;;;;;5033852;28;20080;-58
2024/03/12 02:39:10;;;;;;;23.05;18.55;;;;;;;;;;5033297;28;20048;-58
2024/03/12 02:41:40;;;;;;;30.75;21.45;;;;;;;;;;5033155;28;20073;-58
2024/03/12 02:44:06;;;;;;;28.45;20.92;;;;;;;;;;5033340;28;20499;-57
2024/03/12 02:46:33;;;;;;;28.13;19.85;;;;;;;;;;5033563;28;20049;-57
2024/03/12 02:49:00;;;;;;;30.42;22.42;;;;;;;;;;5033462;28;20061;-57
2024/03/12 02:51:27;;;;;;;29.65;21.77;;;;;;;;;;5033425;28;20061;-57
2024/03/12 02:53:54;;;;;;;34.22;23.35;;;;;;;;;;5033395;28;20070;-57
2024/03/12 02:56:21;;;;;;;36.33;24.48;;;;;;;;;;5033046;28;20056;-57
2024/03/12 02:58:49;;;;;;;37.35;25.38;;;;;;;;;;5033121;28;20060;-57
2024/03/12 03:01:16;;;;;;;40.10;26.35;;;;;;;;;;5045206;28;20131;-57
2024/03/12 03:03:43;;;;;;;44.80;28.60;;;;;;;;;;5052864;28;20075;-58
2024/03/12 03:06:10;;;;;;;45.30;29.35;;;;;;;;;;5053202;28;20053;-57
2024/03/12 03:08:37;;;;;;;48.40;30.55;;;;;;;;;;5053034;28;20076;-58
2024/03/12 03:11:04;;;;;;;48.75;31.17;;;;;;;;;;5052423;28;20061;-58
2024/03/12 03:13:31;;;;;;;51.28;32.42;;;;;;;;;;5052767;28;20057;-58
2024/03/12 03:16:01;;;;;;;54.63;32.95;;;;;;;;;;5052954;28;20052;-57
2024/03/12 03:18:29;;;;;;;55.38;33.08;;;;;;;;;;5052912;28;20378;-57
2024/03/12 03:20:56;;;;;;;52.67;33.25;;;;;;;;;;5053120;28;20084;-57
2024/03/12 03:23:24;;;;;;;54.03;33.25;;;;;;;;;;5052891;28;20056;-57
2024/03/12 03:25:51;;;;;;;57.30;36.03;;;;;;;;;;5052499;28;20053;-57
2024/03/12 03:28:18;;;;;;;63.78;37.63;;;;;;;;;;5051933;28;20064;-57
2024/03/12 03:30:45;;;;;;;58.95;36.35;;;;;;;;;;5052578;28;20049;-57
2024/03/12 03:33:15;;;;;;;62.38;37.53;;;;;;;;;;5052447;28;20053;-57
2024/03/12 03:35:42;;;;;;;61.13;37.08;;;;;;;;;;5052704;28;20049;-57
2024/03/12 03:38:09;;;;;;;66.30;37.92;;;;;;;;;;5052663;28;20056;-57
2024/03/12 03:40:36;;;;;;;68.80;39.10;;;;;;;;;;5052299;28;20048;-59
2024/03/12 03:43:03;;;;;;;64.78;37.75;;;;;;;;;;5052461;28;20531;-56
2024/03/12 03:45:30;;;;;;;60.35;36.00;;;;;;;;;;5052330;28;20068;-60
2024/03/12 03:47:56;;;;;;;61.25;36.85;;;;;;;;;;5052293;28;20056;-58
2024/03/12 03:50:25;;;;;;;66.20;36.97;;;;;;;;;;5052543;28;20049;-57
2024/03/12 03:52:52;;;;;;;65.25;36.78;;;;;;;;;;5052322;28;20409;-57
2024/03/12 03:55:21;;;;;;;65.15;36.95;;;;;;;;;;5052262;28;20049;-57
2024/03/12 03:57:49;;;;;;;66.53;37.60;;;;;;;;;;5052142;28;20406;-59
2024/03/12 04:00:16;;;;;;;67.00;36.63;;;;;;;;;;5052101;28;20063;-58
2024/03/12 04:02:44;;;;;;;65.45;38.58;;;;;;;;;;5052407;28;20063;-58
2024/03/12 04:05:11;;;;;;;67.00;38.13;;;;;;;;;;5052024;28;20053;-57
2024/03/12 04:07:40;;;;;;;67.43;37.83;;;;;;;;;;5052407;28;20061;-57
2024/03/12 04:10:10;;;;;;;68.13;39.22;;;;;;;;;;5051863;28;20053;-57
2024/03/12 04:12:38;;;;;;;68.80;37.25;;;;;;;;;;5052166;28;20053;-57
2024/03/12 04:15:05;;;;;;;68.38;38.70;;;;;;;;;;5052203;28;20048;-57
2024/03/12 04:17:32;;;;;;;65.65;36.30;;;;;;;;;;5052143;28;20059;-57
2024/03/12 04:19:58;;;;;;;59.13;35.60;;;;;;;;;;5051991;28;20064;-58
2024/03/12 04:22:26;;;;;;;55.92;35.67;;;;;;;;;;5051893;28;20053;-59
2024/03/12 04:24:54;;;;;;;58.55;34.78;;;;;;;;;;5051780;28;20057;-59
2024/03/12 04:27:21;;;;;;;45.47;30.38;;;;;;;;;;5052201;28;20402;-57
2024/03/12 04:29:48;;;;;;;51.55;31.50;;;;;;;;;;5051700;28;20071;-58
2024/03/12 04:32:15;;;;;;;50.42;30.27;;;;;;;;;;5052152;28;20052;-58
2024/03/12 04:34:41;;;;;;;46.13;28.95;;;;;;;;;;5051773;28;20079;-57
2024/03/12 04:37:08;;;;;;;42.53;28.30;;;;;;;;;;5051736;28;20057;-57
2024/03/12 04:39:35;;;;;;;45.65;28.35;;;;;;;;;;5053495;28;20053;-58
2024/03/12 04:42:05;;;;;;;41.53;25.58;;;;;;;;;;5055324;28;20052;-58
2024/03/12 04:44:31;;;;;;;41.70;26.92;;;;;;;;;;5055398;28;20048;-58
2024/03/12 04:46:58;;;;;;;39.17;26.40;;;;;;;;;;5055817;28;20160;-57
2024/03/12 04:49:25;;;;;;;40.30;26.58;;;;;;;;;;5055655;28;20052;-58
2024/03/12 04:51:52;;;;;;;38.58;25.90;;;;;;;;;;5055777;28;20483;-58
2024/03/12 04:54:19;;;;;;;38.10;24.25;;;;;;;;;;5055610;28;20057;-57
2024/03/12 04:56:46;;;;;;;40.72;26.02;;;;;;;;;;5055581;28;20414;-57
2024/03/12 04:59:15;;;;;;;37.38;23.98;;;;;;;;;;5055356;28;20052;-57
2024/03/12 05:01:44;;;;;;;39.35;25.10;;;;;;;;;;5055261;28;20352;-57
2024/03/12 05:04:11;;;;;;;36.05;24.08;;;;;;;;;;5055088;28;20053;-57
2024/03/12 05:06:38;;;;;;;33.08;22.17;;;;;;;;;;5055582;28;20059;-57
2024/03/12 05:09:06;;;;;;;34.55;22.42;;;;;;;;;;5055049;28;20052;-56
2024/03/12 05:11:32;;;;;;;29.13;21.63;;;;;;;;;;5054639;28;20060;-58
2024/03/12 05:13:59;;;;;;;35.42;23.45;;;;;;;;;;5055277;28;20056;-58
2024/03/12 05:16:28;;;;;;;35.25;23.58;;;;;;;;;;5055377;28;20140;-58
2024/03/12 05:18:54;;;;;;;32.53;22.52;;;;;;;;;;5054911;28;20056;-58
2024/03/12 05:21:22;;;;;;;34.22;24.10;;;;;;;;;;5055274;28;20394;-58
2024/03/12 05:23:49;;;;;;;34.65;23.90;;;;;;;;;;5054796;28;20151;-58
2024/03/12 05:26:17;;;;;;;38.28;23.90;;;;;;;;;;5055186;28;20175;-58
2024/03/12 05:28:44;;;;;;;37.85;24.50;;;;;;;;;;5054715;28;20057;-58
2024/03/12 05:31:16;;;;;;;36.13;22.77;;;;;;;;;;5055056;28;20049;-58
2024/03/12 05:33:44;;;;;;;34.58;24.45;;;;;;;;;;5054969;28;20509;-58
2024/03/12 05:36:13;;;;;;;34.25;23.27;;;;;;;;;;5054850;28;20059;-58
2024/03/12 05:38:54;;;;;;;;;;;;;;;;;;5055061;28;20057;-57
2024/03/12 05:41:28;;;;;;;30.58;21.83;;;;;;;;;;5054524;28;19928;-57
2024/03/12 05:49:33;;;;;;;34.22;22.35;;;;;;;;;;5054377;28;20041;-57
2024/03/12 05:52:00;;;;;;;31.02;20.50;;;;;;;;;;5053733;28;20053;-57
2024/03/12 05:54:27;;;;;;;29.05;19.60;;;;;;;;;;5054183;28;20060;-58
2024/03/12 05:56:54;;;;;;;25.48;19.38;;;;;;;;;;5054434;28;20501;-57
2024/03/12 05:59:22;;;;;;;26.55;18.90;;;;;;;;;;5053959;28;20052;-58
2024/03/12 06:01:52;;;;;;;27.73;19.35;;;;;;;;;;5037615;28;20605;-58
2024/03/12 06:04:18;;;;;;;26.92;17.67;;;;;;;;;;5033849;28;20049;-58
2024/03/12 06:06:47;;;;;;;25.33;18.88;;;;;;;;;;5034396;28;20053;-58
2024/03/12 06:09:19;;;;;;;25.50;18.67;;;;;;;;;;5034075;28;20057;-57
2024/03/12 06:11:46;;;;;;;25.85;18.98;;;;;;;;;;5033438;28;20053;-58
2024/03/12 06:14:13;;;;;;;27.17;18.50;;;;;;;;;;5033702;28;20518;-57
2024/03/12 06:16:43;;;;;;;25.60;19.15;;;;;;;;;;5033852;28;20061;-58
2024/03/12 06:19:11;;;;;;;26.50;19.38;;;;;;;;;;5033478;28;20049;-58
2024/03/12 06:21:37;;;;;;;25.80;19.67;;;;;;;;;;5033196;28;20049;-58
2024/03/12 06:24:06;;;;;;;29.70;19.67;;;;;;;;;;5033406;28;20407;-58
2024/03/12 06:26:33;;;;;;;24.90;18.90;;;;;;;;;;5033575;28;20060;-57
2024/03/12 06:29:00;;;;;;;24.58;18.15;;;;;;;;;;5033251;28;20068;-57
2024/03/12 06:31:26;;;;;;;27.40;20.02;;;;;;;;;;5033362;28;20053;-57
2024/03/12 06:33:54;;;;;;;24.77;19.00;;;;;;;;;;5033466;28;20064;-57
2024/03/12 06:36:20;;;;;;;27.50;20.58;;;;;;;;;;5033522;28;20053;-58
2024/03/12 06:38:50;;;;;;;25.33;18.85;;;;;;;;;;5033104;28;20056;-57
2024/03/12 06:41:18;;;;;;;26.48;18.95;;;;;;;;;;5033095;28;20057;-56
2024/03/12 06:43:45;;;;;;;24.55;19.15;;;;;;;;;;5033127;28;20057;-57
2024/03/12 06:46:18;;;;;;;24.92;18.05;;;;;;;;;;5032753;28;20057;-57
2024/03/12 06:48:45;;;;;;;23.25;18.27;;;;;;;;;;5033007;28;20415;-58
2024/03/12 06:51:12;;;;;;;22.02;17.80;;;;;;;;;;5033046;28;20049;-57
2024/03/12 06:53:39;;;;;;;22.95;16.83;;;;;;;;;;5032912;28;20141;-57
2024/03/12 06:56:07;;;;;;;22.52;16.42;;;;;;;;;;5033002;28;20060;-57
2024/03/12 06:58:39;;;;;;;21.83;18.08;;;;;;;;;;5032783;28;20049;-57
2024/03/12 07:01:05;;;;;;;22.77;16.33;;;;;;;;;;5043682;28;20080;-57
2024/03/12 07:03:34;;;;;;;24.40;17.27;;;;;;;;;;5052715;28;20052;-57
2024/03/12 07:06:02;;;;;;;22.45;17.20;;;;;;;;;;5053042;28;20061;-57
2024/03/12 07:08:29;;;;;;;20.92;16.90;;;;;;;;;;5053052;28;20056;-57
2024/03/12 07:10:57;;;;;;;22.33;17.02;;;;;;;;;;5052656;28;20052;-57
2024/03/12 07:13:26;;;;;;;20.50;16.05;;;;;;;;;;5051416;28;20056;-56
2024/03/12 07:15:54;;;;;;;22.65;17.15;;;;;;;;;;5045188;28;20060;-57
2024/03/12 07:18:23;;;;;;;19.63;15.30;;;;;;;;;;5047383;28;20057;-56
2024/03/12 07:20:52;;;;;;;19.77;15.33;;;;;;;;;;5045511;28;20419;-55
2024/03/12 07:23:19;;;;;;;19.02;15.73;;;;;;;;;;5045303;28;20056;-56
2024/03/12 07:25:45;;;;;;;20.17;16.75;;;;;;;;;;5044526;28;20410;-54
2024/03/12 07:28:12;;;;;;;18.95;15.73;;;;;;;;;;5044888;28;20057;-54
2024/03/12 07:30:40;;;;;;;19.20;16.13;;;;;;;;;;5044130;28;20128;-55
2024/03/12 07:33:08;;;;;;;19.98;15.82;;;;;;;;;;5043932;28;20056;-54
2024/03/12 07:35:35;;;;;;;19.08;15.15;;;;;;;;;;5046541;28;20048;-55
2024/03/12 07:38:02;;;;;;;17.13;14.30;;;;;;;;;;5059784;28;20057;-54
2024/03/12 07:40:29;;;;;;;20.25;15.23;;;;;;;;;;5050279;28;20052;-56
2024/03/12 07:42:56;;;;;;;17.17;14.27;;;;;;;;;;5049796;28;20049;-56
2024/03/12 07:45:24;;;;;;;18.35;13.88;;;;;;;;;;5047268;28;20063;-56
2024/03/12 07:47:51;;;;;;;18.58;14.70;;;;;;;;;;5046136;28;20057;-56
2024/03/12 07:50:20;;;;;;;17.38;13.80;;;;;;;;;;5055139;28;20470;-54
2024/03/12 07:52:46;;;;;;;12.85;11.18;;;;;;;;;;5053599;28;20049;-55
2024/03/12 07:55:13;;;;;;;13.85;10.75;;;;;;;;;;5043958;28;20059;-55
2024/03/12 07:57:42;;;;;;;13.20;10.88;;;;;;;;;;5044772;28;20418;-57
2024/03/12 08:00:14;;;;;;;12.75;9.98;;;;;;;;;;5049404;28;20052;-57
2024/03/12 08:02:41;;;;;;;14.73;10.48;;;;;;;;;;5041985;28;20060;-56
2024/03/12 08:05:08;;;;;;;15.60;11.85;;;;;;;;;;5049255;28;20092;-56
2024/03/12 08:07:36;;;;;;;16.83;12.65;;;;;;;;;;5053338;28;20044;-55
2024/03/12 08:10:05;;;;;;;17.95;12.10;;;;;;;;;;5044133;28;20061;-54
2024/03/12 08:12:32;;;;;;;14.52;11.18;;;;;;;;;;5042934;28;20056;-53
2024/03/12 08:14:59;;;;;;;14.90;11.68;;;;;;;;;;5045304;28;20159;-56
2024/03/12 08:17:28;;;;;;;16.02;13.23;;;;;;;;;;5050700;28;20053;-56
2024/03/12 08:19:55;;;;;;;18.25;13.38;;;;;;;;;;5047311;28;20052;-56
2024/03/12 08:22:22;;;;;;;14.45;11.13;;;;;;;;;;5041907;28;20052;-55
2024/03/12 08:24:50;;;;;;;15.63;11.38;;;;;;;;;;5050265;28;20060;-55
2024/03/12 08:27:18;;;;;;;14.77;11.88;;;;;;;;;;5055836;28;20402;-53
2024/03/12 08:29:45;;;;;;;15.35;12.02;;;;;;;;;;5056547;28;20057;-54
2024/03/12 08:32:12;;;;;;;15.70;12.50;;;;;;;;;;5050789;28;20064;-55
2024/03/12 08:34:39;;;;;;;16.88;12.43;;;;;;;;;;5053562;28;20051;-54
2024/03/12 08:37:09;;;;;;;16.08;12.10;;;;;;;;;;5054795;28;20053;-54
2024/03/12 08:39:37;;;;;;;16.40;13.10;;;;;;;;;;5049412;28;20072;-57
2024/03/12 08:42:07;;;;;;;19.85;13.82;;;;;;;;;;5047958;28;20053;-55
2024/03/12 08:44:33;;;;;;;16.88;13.40;;;;;;;;;;5047546;28;20057;-53
2024/03/12 08:47:00;;;;;;;14.23;12.70;;;;;;;;;;5047809;28;20157;-54
2024/03/12 08:49:26;;;;;;;15.00;12.20;;;;;;;;;;5050907;28;20049;-52
2024/03/12 08:51:53;;;;;;;16.15;12.38;;;;;;;;;;5045326;28;20041;-54
2024/03/12 08:54:20;;;;;;;17.75;13.70;;;;;;;;;;5047552;28;20067;-54
2024/03/12 08:56:48;;;;;;;17.42;12.50;;;;;;;;;;5051559;28;20056;-53
2024/03/12 08:59:16;;;;;;;15.90;13.27;;;;;;;;;;5053199;28;20056;-56
2024/03/12 09:01:44;;;;;;;19.67;14.55;;;;;;;;;;5056276;28;20052;-54
2024/03/12 09:04:11;;;;;;;20.98;14.82;;;;;;;;;;5042717;28;20055;-54
2024/03/12 09:06:37;;;;;;;17.83;13.73;;;;;;;;;;5043827;28;20080;-55
2024/03/12 09:09:05;;;;;;;19.35;14.60;;;;;;;;;;5044543;28;20057;-55
2024/03/12 09:11:31;;;;;;;20.02;14.75;;;;;;;;;;5046805;28;20049;-55
2024/03/12 09:13:59;;;;;;;19.63;15.35;;;;;;;;;;5048110;28;20045;-55
2024/03/12 09:16:27;;;;;;;21.13;15.77;;;;;;;;;;5050806;28;20044;-55
2024/03/12 09:18:54;;;;;;;21.02;16.70;;;;;;;;;;5065660;28;20402;-55
2024/03/12 09:21:22;;;;;;;19.67;15.57;;;;;;;;;;5074591;28;20060;-55
2024/03/12 09:23:49;;;;;;;21.13;15.10;;;;;;;;;;5058330;28;20414;-56
2024/03/12 09:26:16;;;;;;;20.05;14.98;;;;;;;;;;5050178;28;20138;-55
2024/03/12 09:28:42;;;;;;;21.25;15.73;;;;;;;;;;5054527;28;20049;-56
2024/03/12 09:31:09;;;;;;;18.13;14.27;;;;;;;;;;5052802;28;20461;-55
2024/03/12 09:33:38;;;;;;;19.58;15.13;;;;;;;;;;5055248;28;20049;-56
2024/03/12 09:36:05;;;;;;;18.38;14.13;;;;;;;;;;5054256;28;20486;-55
2024/03/12 09:38:31;;;;;;;16.83;13.27;;;;;;;;;;5052489;28;20067;-55
2024/03/12 09:41:01;;;;;;;22.63;15.77;;;;;;;;;;5048472;28;20056;-55
2024/03/12 09:43:29;;;;;;;21.63;16.40;;;;;;;;;;5047365;28;20376;-55
2024/03/12 09:45:57;;;;;;;22.70;17.50;;;;;;;;;;5047717;28;20053;-56
2024/03/12 09:48:24;;;;;;;18.95;15.32;;;;;;;;;;5049020;28;20409;-56
2024/03/12 09:50:52;;;;;;;23.77;17.33;;;;;;;;;;5049663;28;20429;-55
2024/03/12 09:53:21;;;;;;;22.60;17.25;;;;;;;;;;5045816;28;20052;-55
2024/03/12 09:55:49;;;;;;;26.48;18.83;;;;;;;;;;5047428;28;20045;-55
2024/03/12 09:58:16;;;;;;;23.98;18.63;;;;;;;;;;5047358;28;20053;-57
2024/03/12 10:00:46;;;;;;;22.95;18.02;;;;;;;;;;5054753;28;20498;-56
2024/03/12 10:03:13;;;;;;;24.65;17.63;;;;;;;;;;5048491;28;20073;-56
2024/03/12 10:05:40;;;;;;;23.40;17.30;;;;;;;;;;5047520;28;20045;-57
2024/03/12 10:08:12;;;;;;;20.77;16.35;;;;;;;;;;5047631;28;20498;-55
2024/03/12 10:10:39;;;;;;;21.40;16.23;;;;;;;;;;5046808;28;20111;-55
2024/03/12 10:13:08;;;;;;;22.25;16.92;;;;;;;;;;5047911;28;20048;-55
2024/03/12 10:15:36;;;;;;;18.27;14.07;;;;;;;;;;5053911;28;20049;-56
2024/03/12 10:18:06;;;;;;;16.50;12.73;;;;;;;;;;5056589;28;20067;-57
2024/03/12 10:20:45;;;;;;;16.25;12.32;;;;;;;;;;5050281;28;20052;-56
2024/03/12 10:23:15;;;;;;;15.85;12.10;;;;;;;;;;5048150;28;20049;-57
2024/03/12 10:25:44;;;;;;;19.33;12.73;;;;;;;;;;5046200;28;20611;-57
2024/03/12 10:28:14;;;;;;;17.40;13.02;;;;;;;;;;5052190;28;20498;-57
2024/03/12 10:30:41;;;;;;;17.75;12.43;;;;;;;;;;5049421;28;20063;-57
2024/03/12 10:33:17;;;;;;;18.15;12.60;;;;;;;;;;5053647;28;21461;-56
2024/03/12 10:35:45;;;;;;;16.95;12.95;;;;;;;;;;5046924;28;20065;-57
2024/03/12 10:38:14;;;;;;;20.08;13.50;;;;;;;;;;5046579;28;20052;-56
2024/03/12 10:40:41;;;;;;;18.73;13.52;;;;;;;;;;5044878;28;20044;-56
2024/03/12 10:43:08;;;;;;;18.52;13.05;;;;;;;;;;5052587;28;20055;-56
2024/03/12 10:45:35;;;;;;;20.40;14.23;;;;;;;;;;5047456;28;20056;-56
2024/03/12 10:48:06;;;;;;;18.27;13.32;;;;;;;;;;5049764;28;20049;-56
2024/03/12 10:50:34;;;;;;;17.75;12.88;;;;;;;;;;5049612;28;20048;-56
2024/03/12 10:53:01;;;;;;;18.08;13.57;;;;;;;;;;5052805;28;20052;-57
2024/03/12 10:55:32;;;;;;;19.73;13.68;;;;;;;;;;5050320;28;20053;-57
2024/03/12 10:58:01;;;;;;;19.88;13.57;;;;;;;;;;5047337;28;20433;-56
2024/03/12 11:00:28;;;;;;;19.60;14.02;;;;;;;;;;5046756;28;20064;-56
2024/03/12 11:02:55;;;;;;;20.52;15.27;;;;;;;;;;5041221;28;20064;-57
2024/03/12 11:05:24;;;;;;;22.75;15.93;;;;;;;;;;5043119;28;20068;-57
2024/03/12 11:07:51;;;;;;;;;;;;;;;;;;5043074;28;20140;-55
2024/03/12 11:10:19;;;;;;;23.02;15.20;;;;;;;;;;5040672;28;19944;-57
2024/03/12 11:12:48;;;;;;;22.65;15.63;;;;;;;;;;5041959;28;20072;-56
2024/03/12 11:15:15;;;;;;;23.40;16.15;;;;;;;;;;5044113;28;20513;-56
2024/03/12 11:17:47;;;;;;;20.85;15.48;;;;;;;;;;5045066;28;20063;-55
2024/03/12 11:20:15;;;;;;;22.38;16.13;;;;;;;;;;5041625;28;20049;-55
2024/03/12 11:22:42;;;;;;;22.00;15.55;;;;;;;;;;5045860;28;20406;-55
2024/03/12 11:25:09;;;;;;;24.40;16.67;;;;;;;;;;5045156;28;20410;-56
2024/03/12 11:27:37;;;;;;;25.60;17.00;;;;;;;;;;5044974;28;20055;-55
2024/03/12 11:30:11;;;;;;;25.40;18.05;;;;;;;;;;5043734;28;20052;-56
2024/03/12 11:32:39;;;;;;;23.48;16.08;;;;;;;;;;5041946;28;20044;-56
2024/03/12 11:35:08;;;;;;;19.90;15.88;;;;;;;;;;5045164;28;20413;-54
2024/03/12 11:37:35;;;;;;;23.25;16.38;;;;;;;;;;5043411;28;20057;-56
2024/03/12 11:40:20;;;;;;;21.85;16.35;;;;;;;;;;5044461;28;20053;-54
2024/03/12 11:42:47;;;;;;;23.75;16.15;;;;;;;;;;5040864;28;20062;-54
2024/03/12 11:48:07;;;;;;;23.08;15.70;;;;;;;;;;5136764;27;20569;-57
2024/03/12 11:50:35;;;;;;;19.33;14.88;;;;;;;;;;5116446;28;20062;-57
2024/03/12 11:53:13;;;;;;;21.92;14.82;;;;;;;;;;5115601;27;20051;-58
2024/03/12 11:55:57;;;;;;;20.25;15.10;;;;;;;;;;5111152;28;20073;-55
2024/03/12 11:58:31;;;;;;;21.58;15.80;;;;;;;;;;5105408;28;20507;-56
2024/03/12 12:00:58;;;;;;;20.70;15.25;;;;;;;;;;5106867;28;20157;-56
2024/03/12 12:03:26;;;;;;;20.80;16.15;;;;;;;;;;5107465;27;20051;-56
2024/03/12 12:05:54;;;;;;;22.40;14.82;;;;;;;;;;5112408;28;20050;-56
2024/03/12 12:08:21;;;;;;;21.77;15.82;;;;;;;;;;5109703;27;20047;-55
2024/03/12 12:10:58;;;;;;;25.42;15.48;;;;;;;;;;5111256;27;20047;-56
2024/03/12 12:13:25;;;;;;;22.73;15.82;;;;;;;;;;5109797;27;20493;-55
2024/03/12 12:15:59;;;;;;;21.83;16.27;;;;;;;;;;5109521;28;20059;-56
2024/03/12 12:18:28;;;;;;;24.65;16.50;;;;;;;;;;5109655;27;20056;-56
2024/03/12 12:20:57;;;;;;;23.88;15.98;;;;;;;;;;5109300;28;20066;-54
2024/03/12 12:23:27;;;;;;;22.95;15.25;;;;;;;;;;5114293;28;20483;-55
2024/03/12 12:25:57;;;;;;;21.15;14.93;;;;;;;;;;5111021;28;20060;-57
2024/03/12 12:28:24;;;;;;;;;;;;;;;;;;5117766;28;20048;-56
2024/03/12 12:30:51;;;;;;;21.05;14.68;;;;;;;;;;5114914;27;19931;-56
2024/03/12 12:33:19;;;;;;;21.20;14.95;;;;;;;;;;5118200;28;20067;-55
2024/03/12 12:35:48;;;;;;;22.00;15.10;;;;;;;;;;5118267;28;20047;-55
2024/03/12 12:38:16;;;;;;;;;;;;;;;;;;5116401;28;20043;-55
2024/03/12 12:40:44;;;;;;;24.05;16.17;;;;;;;;;;5117407;27;19926;-56
2024/03/12 12:43:15;;;;;;;19.30;14.15;;;;;;;;;;5102815;27;20067;-57
2024/03/12 12:45:43;;;;;;;23.00;15.48;;;;;;;;;;5103970;28;20047;-56
2024/03/12 12:48:11;;;;;;;22.48;15.63;;;;;;;;;;5101690;28;20045;-56
2024/03/12 12:50:38;;;;;;;24.73;16.40;;;;;;;;;;5096755;28;20047;-57
2024/03/12 12:53:08;;;;;;;21.00;15.20;;;;;;;;;;5098240;28;20063;-58
2024/03/12 12:55:36;;;;;;;19.60;15.57;;;;;;;;;;5091557;28;20057;-56
2024/03/12 12:58:04;;;;;;;20.95;15.43;;;;;;;;;;5094851;28;20063;-57
2024/03/12 13:00:35;;;;;;;21.25;15.88;;;;;;;;;;5086392;28;20053;-55
2024/03/12 13:03:12;;;;;;;21.48;15.90;;;;;;;;;;5085218;28;20500;-55
2024/03/12 13:05:41;;;;;;;21.38;14.80;;;;;;;;;;5098937;28;20079;-55
2024/03/12 13:08:26;;;;;;;20.65;16.05;;;;;;;;;;5091513;28;20059;-57
2024/03/12 13:10:58;;;;;;;21.50;15.60;;;;;;;;;;5089275;28;20052;-56
2024/03/12 13:13:27;;;;;;;22.42;16.83;;;;;;;;;;5093250;28;20067;-56
2024/03/12 13:15:54;;;;;;;22.10;15.90;;;;;;;;;;5087445;28;20048;-55
2024/03/12 13:18:21;;;;;;;22.13;15.52;;;;;;;;;;5092500;28;20421;-57
2024/03/12 13:20:49;;;;;;;21.50;17.00;;;;;;;;;;5087679;28;20495;-57
2024/03/12 13:23:16;;;;;;;24.02;18.13;;;;;;;;;;5082070;28;20048;-57
2024/03/12 13:25:45;;;;;;;23.67;17.48;;;;;;;;;;5097195;28;20055;-56
2024/03/12 13:28:14;;;;;;;25.60;18.70;;;;;;;;;;5083480;28;20047;-56
2024/03/12 13:30:41;;;;;;;27.77;18.75;;;;;;;;;;5081610;28;20053;-57
2024/03/12 13:33:08;;;;;;;26.35;19.05;;;;;;;;;;5089150;28;20056;-58
2024/03/12 13:35:35;;;;;;;25.45;17.50;;;;;;;;;;5088475;28;20416;-55
2024/03/12 13:38:01;;;;;;;23.13;18.05;;;;;;;;;;5090934;28;20067;-56
2024/03/12 13:40:29;;;;;;;26.67;18.55;;;;;;;;;;5085812;28;20382;-56
2024/03/12 13:42:57;;;;;;;26.58;18.25;;;;;;;;;;5086495;28;20058;-57
2024/03/12 13:45:24;;;;;;;23.38;17.33;;;;;;;;;;5086539;28;20067;-55
2024/03/12 13:47:51;;;;;;;26.90;19.10;;;;;;;;;;5087186;28;20051;-56
2024/03/12 13:50:18;;;;;;;26.00;19.08;;;;;;;;;;5089364;28;20051;-56
2024/03/12 13:52:46;;;;;;;24.55;18.67;;;;;;;;;;5082446;28;20374;-56
2024/03/12 13:55:13;;;;;;;25.00;18.42;;;;;;;;;;5088447;28;20052;-57
2024/03/12 13:57:40;;;;;;;25.92;17.42;;;;;;;;;;5088300;28;20055;-57
2024/03/12 14:00:09;;;;;;;25.15;18.65;;;;;;;;;;5086019;28;20059;-57
2024/03/12 14:02:36;;;;;;;25.55;19.30;;;;;;;;;;5100203;28;20605;-55
2024/03/12 14:05:04;;;;;;;23.77;17.20;;;;;;;;;;5089199;28;20052;-57
2024/03/12 14:07:32;;;;;;;25.50;17.38;;;;;;;;;;5085236;28;20055;-56
2024/03/12 14:09:59;;;;;;;25.95;18.67;;;;;;;;;;5092482;28;20099;-58
2024/03/12 14:12:25;;;;;;;22.90;17.08;;;;;;;;;;5092026;28;20060;-57
2024/03/12 14:14:52;;;;;;;26.05;17.70;;;;;;;;;;5089556;28;20085;-56
2024/03/12 14:17:21;;;;;;;22.15;17.55;;;;;;;;;;5092208;28;20048;-57
2024/03/12 14:19:48;;;;;;;24.58;18.95;;;;;;;;;;5091367;28;20048;-56
2024/03/12 14:22:14;;;;;;;22.95;18.52;;;;;;;;;;5081351;28;20055;-57
2024/03/12 14:24:41;;;;;;;23.88;19.13;;;;;;;;;;5085852;28;20052;-57
2024/03/12 14:27:09;;;;;;;24.80;18.08;;;;;;;;;;5089083;28;20052;-55
2024/03/12 14:29:37;;;;;;;25.13;19.95;;;;;;;;;;5090215;28;20051;-56
2024/03/12 14:32:03;;;;;;;25.00;19.75;;;;;;;;;;5091789;28;20074;-54